メインページ
METAR-TAF:

METAR-TAF

空港 :

メルボルン空港

メルボルン, オーストラリア

緯度: 37-40-24S, 経度: 144-50-36E, 海抜: 132m

現時点の気象観測

当レポートは25分前の01:30(UTC)に作成
北/北東の風 23kt、最大35ktの突風を伴う
気温 21°C
湿度 60%
気圧 1013 hPa
視程10km以上
高度2700ftの雲はほとんどない
高度7600ftの千切れ雲あり
高度9000ftの千切れ雲あり

METAR: YMML 160130Z 02023G35KT 9999 FEW027 BKN076 BKN090 21/13 Q1013 FM0130 MOD/SEV TURB BLW 5000FT

時間: 12:55 (01:55 UTC)

予報

当レポートは2時間27分前の23:28(UTC)に作成
予報は16日の 00時(UTC)から 17日の 06時(UTC)まで有効
の風 22kt、最大36ktの突風を伴う
視程10km以上
高度8000ftの千切れ雲あり
弱いにわか雨
16日の 06時(UTC)から 16日の 08時(UTC)まで徐々に
の風 14kt
視程10km以上
高度2000ftの雲はほとんどない
高度8000ftの雲は散在している
弱いにわか雨
16日の 1600時(UTC)から
北/北西の風 6kt
視程10km以上
1,500メートル以下は雲なし、積乱雲なし
17日の 0000時(UTC)から
北西の風 12kt
視程: 4000m
高度4000ftの雲は散在している
高度3000ftの千切れ雲あり
弱いにわか雨, にわか雨
確率 30%
間 INからTE UTC
の風 30kt、最大40ktの突風を伴う
視程: 3000m
高度2000ftの千切れ雲あり
高度6000ftの雲はほとんどない, 積乱雲.
激しい雷雨, 雨

TAF: YMML 152328Z 1600/1706 01022G36KT 9999 -SHRA BKN080 BECMG 1606/1608 01014KT 9999 -SHRA FEW020 SCT080 FM161600 34006KT CAVOK FM170000 32012KT 9999 -SHRA SCT040 INTER 1702/1706 4000 SHRA BKN030 PROB30 INTER 1603/1613 36030G40KT 3000 TSRA BKN020 FEW060CB

4,000以上の空港の気象観測と天気予報(METAR報とTAF報)

利用可能な観測所は地図上に黄色い丸と赤い丸で示す。

丸の上にカーソルを重ねると観測所名を参照できる。

次にクリックすると気象観測と天気予報を参照できる。

マップの切り替え:黒色「×」印の緑ボタンをクリックして拡大、「-」印の緑ボタンをクリックして縮小、緑色の三角印をクリックして隣りの地図に切り替え


METAR-TAF: